createdAt,value
2018-04-08T00:03:08.960Z,81
2018-04-08T00:08:09.039Z,81.1
2018-04-08T00:13:10.896Z,81.4
2018-04-08T00:18:09.897Z,81.5
2018-04-08T00:23:10.399Z,81.8
2018-04-08T00:28:10.202Z,81.6
2018-04-08T00:33:16.856Z,81.8
2018-04-08T00:38:16.411Z,82
2018-04-08T00:43:16.809Z,81.5
2018-04-08T00:48:17.745Z,82.3
2018-04-08T00:53:19.734Z,82.3
2018-04-08T00:58:16.733Z,82.4
2018-04-08T01:03:32.850Z,82.9
2018-04-08T01:08:30.801Z,82.7
2018-04-08T01:13:31.756Z,82.9
2018-04-08T01:18:34.739Z,82.7
2018-04-08T01:23:36.463Z,82.3
2018-04-08T01:28:33.716Z,83.2
2018-04-08T01:33:50.870Z,83.6
2018-04-08T01:38:51.733Z,83.1
2018-04-08T01:43:49.785Z,83.6
2018-04-08T01:48:51.753Z,83.8
2018-04-08T01:53:52.735Z,83.4
2018-04-08T01:58:49.706Z,83.6
2018-04-08T02:03:54.724Z,84.2
2018-04-08T02:08:55.672Z,83.9
2018-04-08T02:13:55.639Z,83.8
2018-04-08T02:19:01.709Z,84.3
2018-04-08T02:24:01.637Z,84.1
2018-04-08T02:29:00.638Z,84.7
2018-04-08T02:34:15.753Z,84.3
2018-04-08T02:39:13.710Z,83.6
2018-04-08T02:44:15.670Z,84
2018-04-08T02:49:16.662Z,84
2018-04-08T02:54:14.639Z,83.3
2018-04-08T02:59:15.568Z,83.2
2018-04-08T03:04:20.628Z,83.1
2018-04-08T03:09:21.616Z,82.6
2018-04-08T03:14:23.600Z,82.8
2018-04-08T03:19:27.611Z,82.2
2018-04-08T03:24:27.553Z,81.5
2018-04-08T03:29:25.555Z,82
2018-04-08T03:34:34.551Z,82.3
2018-04-08T03:39:32.552Z,82.9
2018-04-08T03:44:33.528Z,82.9
2018-04-08T03:49:34.478Z,82.9
2018-04-08T03:54:33.430Z,82.3
2018-04-08T03:59:34.420Z,82.1
2018-04-08T04:04:51.587Z,82.5
2018-04-08T04:09:48.530Z,82.4
2018-04-08T04:14:50.498Z,83.9
2018-04-08T04:19:52.507Z,83.1
2018-04-08T04:24:54.473Z,82.4
2018-04-08T04:29:52.449Z,83.8
2018-04-08T04:35:01.512Z,84
2018-04-08T04:40:02.471Z,83.8
2018-04-08T04:45:00.451Z,84.4
2018-04-08T04:50:02.372Z,83.5
2018-04-08T04:54:59.480Z,83.6
2018-04-08T05:00:00.357Z,84.1
2018-04-08T05:05:11.429Z,84.6
2018-04-08T05:10:14.404Z,86.2
2018-04-08T05:15:11.375Z,85.9
2018-04-08T05:20:19.385Z,85.8
2018-04-08T05:25:17.388Z,84
2018-04-08T05:30:18.339Z,83.6
2018-04-08T05:35:32.438Z,83.4
2018-04-08T05:40:31.446Z,84
2018-04-08T05:45:33.381Z,82.1
2018-04-08T05:50:34.375Z,82.7
2018-04-08T05:55:32.370Z,82.5
2018-04-08T06:00:34.307Z,82.2
2018-04-08T06:05:45.425Z,83.4
2018-04-08T06:10:46.099Z,84.7
2018-04-08T06:15:45.370Z,80.3
2018-04-08T06:20:45.345Z,79.8
2018-04-08T06:25:47.138Z,79.7
2018-04-08T06:30:45.271Z,77.9
2018-04-08T06:35:59.514Z,77
2018-04-08T06:40:58.352Z,76
2018-04-08T06:46:00.350Z,77.9
2018-04-08T06:51:03.284Z,76.1
2018-04-08T06:56:04.275Z,75.7
2018-04-08T07:01:02.275Z,75.2
2018-04-08T07:06:16.983Z,74.7
2018-04-08T07:11:15.350Z,73.6
2018-04-08T07:16:17.280Z,72.2
2018-04-08T07:21:20.286Z,70.9
2018-04-08T07:26:19.817Z,71.5
2018-04-08T07:31:19.240Z,70.6
2018-04-08T07:36:21.194Z,70.7
2018-04-08T07:41:25.269Z,69.7
2018-04-08T07:46:26.248Z,68.5
2018-04-08T07:51:27.123Z,67.6
2018-04-08T07:56:25.205Z,67.9
2018-04-08T08:01:27.131Z,66.3
2018-04-08T08:06:27.618Z,66.3
2018-04-08T08:11:45.882Z,63.9
2018-04-08T08:16:45.273Z,63.4
2018-04-08T08:21:46.199Z,62.9
2018-04-08T08:26:45.149Z,62.3
2018-04-08T08:31:45.141Z,61.5
2018-04-08T08:36:47.136Z,62.3
2018-04-08T08:41:44.167Z,60.7
2018-04-08T08:46:55.641Z,59.7
2018-04-08T08:51:55.169Z,61.1
2018-04-08T08:56:55.919Z,59
2018-04-08T09:01:58.612Z,59.9
2018-04-08T09:06:59.773Z,61
2018-04-08T09:12:00.119Z,58.4
2018-04-08T09:17:02.036Z,58
2018-04-08T09:22:12.115Z,58.6
2018-04-08T09:27:11.991Z,60.5
2018-04-08T09:32:11.043Z,57.9
2018-04-08T09:37:13.078Z,58.9
2018-04-08T09:42:13.943Z,56.9
2018-04-08T09:47:12.016Z,56.8
2018-04-08T09:52:21.013Z,57.6
2018-04-08T09:57:19.032Z,56.1
2018-04-08T10:02:20.939Z,54.6
2018-04-08T10:07:24.012Z,55.4
2018-04-08T10:12:24.994Z,55.8
2018-04-08T10:17:25.948Z,54.7
2018-04-08T10:22:38.004Z,53.8
2018-04-08T10:27:39.660Z,52.7
2018-04-08T10:32:37.038Z,51.4
2018-04-08T10:37:41.012Z,50.9
2018-04-08T10:42:42.998Z,51.8
2018-04-08T10:47:43.174Z,52.8
2018-04-08T10:52:55.005Z,51.4
2018-04-08T10:57:52.018Z,52.7
2018-04-08T11:02:53.003Z,50.7
2018-04-08T11:07:54.929Z,51.2
2018-04-08T11:12:51.918Z,51.3
2018-04-08T11:17:53.910Z,51
2018-04-08T11:23:06.006Z,50.3
2018-04-08T11:28:06.947Z,51.3
2018-04-08T11:33:09.984Z,49
2018-04-08T11:38:13.945Z,50.6
2018-04-08T11:43:12.215Z,49.5
2018-04-08T11:48:10.899Z,50.4
2018-04-08T11:53:20.964Z,48.8
2018-04-08T11:58:20.420Z,50.7
2018-04-08T12:03:19.908Z,49.9
2018-04-08T12:08:22.853Z,50.3
2018-04-08T12:13:20.062Z,48.8
2018-04-08T12:18:21.840Z,49.6
2018-04-08T12:23:32.925Z,49.7
2018-04-08T12:28:33.912Z,48.5
2018-04-08T12:33:32.042Z,50
2018-04-08T12:38:32.837Z,48.2
2018-04-08T12:43:35.830Z,47.5
2018-04-08T12:48:34.758Z,47
2018-04-08T12:53:32.746Z,46.2
2018-04-08T12:58:41.614Z,46.7
2018-04-08T13:03:43.732Z,46.1
2018-04-08T13:08:40.728Z,48.1
2018-04-08T13:13:43.703Z,45.5
2018-04-08T13:18:40.704Z,44.6
2018-04-08T13:23:42.673Z,44.4
2018-04-08T13:28:53.762Z,44.4
2018-04-08T13:33:54.692Z,46.2
2018-04-08T13:38:54.644Z,44.9
2018-04-08T13:43:53.663Z,45.7
2018-04-08T13:48:55.631Z,46.5
2018-04-08T13:53:53.593Z,45.7
2018-04-08T13:59:13.742Z,47
2018-04-08T14:04:11.716Z,45.2
2018-04-08T14:09:14.693Z,46.3
2018-04-08T14:14:14.634Z,47.1
2018-04-08T14:19:13.614Z,47
2018-04-08T14:24:13.212Z,46.9
2018-04-08T14:29:19.672Z,46.3
2018-04-08T14:34:21.602Z,46.7
2018-04-08T14:39:22.596Z,46.7
2018-04-08T14:44:24.588Z,46
2018-04-08T14:49:23.533Z,46.6
2018-04-08T14:54:24.509Z,46.9
2018-04-08T14:59:22.462Z,47.2
2018-04-08T15:04:37.657Z,46.4
2018-04-08T15:09:34.575Z,46.2
2018-04-08T15:14:36.532Z,44.7
2018-04-08T15:19:36.301Z,46.1
2018-04-08T15:24:38.026Z,46.8
2018-04-08T15:29:37.496Z,45.5
2018-04-08T15:34:39.445Z,46.8
2018-04-08T15:39:51.522Z,46.6
2018-04-08T15:44:52.529Z,46.6
2018-04-08T15:49:50.476Z,47.2
2018-04-08T15:54:49.960Z,46.8
2018-04-08T15:59:51.389Z,46.1
2018-04-08T16:04:49.923Z,47.5
2018-04-08T16:09:51.295Z,47.2
2018-04-08T16:15:01.446Z,47.3
2018-04-08T16:19:59.389Z,47.3
2018-04-08T16:24:59.985Z,47.5
2018-04-08T16:30:09.038Z,48.2
2018-04-08T16:35:07.386Z,47.8
2018-04-08T16:40:09.356Z,48.1
2018-04-08T16:45:26.532Z,48.9
2018-04-08T16:50:23.489Z,48.6
2018-04-08T16:55:22.930Z,48.8
2018-04-08T17:00:27.407Z,48
2018-04-08T17:05:29.391Z,49.7
2018-04-08T17:10:27.419Z,49.7
2018-04-08T17:15:28.375Z,51
2018-04-08T17:20:38.453Z,51.9
2018-04-08T17:25:39.018Z,52.7
2018-04-08T17:30:37.404Z,54.4
2018-04-08T17:35:39.380Z,57
2018-04-08T17:40:37.352Z,58.3
2018-04-08T17:45:38.322Z,59.5
2018-04-08T17:50:55.454Z,59.9
2018-04-08T17:55:56.386Z,61.2
2018-04-08T18:00:55.357Z,61
2018-04-08T18:05:57.382Z,60.9
2018-04-08T18:10:54.321Z,62.4
2018-04-08T18:15:55.312Z,62.7
2018-04-08T18:21:14.448Z,64.4
2018-04-08T18:26:13.316Z,63.5
2018-04-08T18:31:11.399Z,65.2
2018-04-08T18:36:13.381Z,65.3
2018-04-08T18:41:10.364Z,65.9
2018-04-08T18:46:12.322Z,65.8
2018-04-08T18:51:11.214Z,65.8
2018-04-08T18:56:21.517Z,66.3
2018-04-08T19:01:20.021Z,67.2
2018-04-08T19:06:21.673Z,68.6
2018-04-08T19:11:26.254Z,69.1
2018-04-08T19:16:27.216Z,69.6
2018-04-08T19:21:24.871Z,71.3
2018-04-08T19:26:38.524Z,72.6
2018-04-08T19:31:37.308Z,73.6
2018-04-08T19:36:39.250Z,72.6
2018-04-08T19:41:37.272Z,73.3
2018-04-08T19:46:40.173Z,72.9
2018-04-08T19:51:38.581Z,73.6
2018-04-08T19:56:38.186Z,74.3
2018-04-08T20:01:47.176Z,75.2
2018-04-08T20:06:47.156Z,74.9
2018-04-08T20:11:52.216Z,74.4
2018-04-08T20:16:53.401Z,75.6
2018-04-08T20:21:52.151Z,77.3
2018-04-08T20:26:52.088Z,75.4
2018-04-08T20:32:05.220Z,75.6
2018-04-08T20:37:07.186Z,78
2018-04-08T20:42:07.270Z,76.1
2018-04-08T20:47:05.160Z,76.1
2018-04-08T20:52:07.084Z,76.7
2018-04-08T20:57:08.084Z,77.4
2018-04-08T21:02:24.611Z,77.2
2018-04-08T21:07:24.161Z,76.7
2018-04-08T21:12:25.174Z,77
2018-04-08T21:17:23.145Z,78.8
2018-04-08T21:22:25.114Z,79.8
2018-04-08T21:27:26.122Z,78.6
2018-04-08T21:32:34.121Z,79.3
2018-04-08T21:37:32.070Z,79.7
2018-04-08T21:42:32.572Z,80.9
2018-04-08T21:47:35.065Z,79.6
2018-04-08T21:52:34.028Z,79.6
2018-04-08T21:57:34.967Z,79.3
2018-04-08T22:02:43.022Z,79
2018-04-08T22:07:43.066Z,78.6
2018-04-08T22:12:43.231Z,78.6
2018-04-08T22:17:48.039Z,80.1
2018-04-08T22:22:49.992Z,80.7
2018-04-08T22:27:50.489Z,80.4
2018-04-08T22:32:55.022Z,79.9
2018-04-08T22:37:55.979Z,79.7
2018-04-08T22:43:01.023Z,79.1
2018-04-08T22:48:02.727Z,78.9
2018-04-08T22:53:00.919Z,79.1
2018-04-08T22:58:01.955Z,80.3
2018-04-08T23:03:08.932Z,80.1
2018-04-08T23:08:09.909Z,80
2018-04-08T23:13:09.931Z,80.6
2018-04-08T23:18:21.977Z,79.7
2018-04-08T23:23:21.966Z,79.8
2018-04-08T23:28:19.908Z,80.2
2018-04-08T23:33:19.205Z,81
2018-04-08T23:38:25.956Z,80.3
2018-04-08T23:43:27.944Z,80.5
2018-04-08T23:48:30.898Z,80.7
2018-04-08T23:53:30.884Z,81.1
2018-04-08T23:58:29.871Z,82.5
